createdAt,value
2018-05-04T00:00:13.861Z,1015.39
2018-05-04T00:00:50.567Z,1015.39
2018-05-04T00:01:27.768Z,1015.39
2018-05-04T00:02:04.103Z,1015.41
2018-05-04T00:02:39.681Z,1015.40
2018-05-04T00:03:15.214Z,1015.42
2018-05-04T00:03:50.850Z,1015.39
2018-05-04T00:04:26.273Z,1015.38
2018-05-04T00:05:01.506Z,1015.42
2018-05-04T00:05:37.968Z,1015.41
2018-05-04T00:06:13.324Z,1015.43
2018-05-04T00:06:48.681Z,1015.42
2018-05-04T00:07:24.236Z,1015.42
2018-05-04T00:08:00.687Z,1015.43
2018-05-04T00:08:36.213Z,1015.45
2018-05-04T00:09:11.628Z,1015.46
2018-05-04T00:09:46.866Z,1015.46
2018-05-04T00:10:24.404Z,1015.45
2018-05-04T00:11:00.074Z,1015.47
2018-05-04T00:11:35.746Z,1015.44
2018-05-04T00:12:11.943Z,1015.47
2018-05-04T00:12:47.082Z,1015.48
2018-05-04T00:13:22.611Z,1015.49
2018-05-04T00:13:58.027Z,1015.50
2018-05-04T00:14:33.594Z,1015.53
2018-05-04T00:15:10.217Z,1015.51
2018-05-04T00:15:49.963Z,1015.54
2018-05-04T00:16:25.692Z,1015.55
2018-05-04T00:17:01.149Z,1015.57
2018-05-04T00:17:36.467Z,1015.57
2018-05-04T00:18:11.692Z,1015.60
2018-05-04T00:18:47.002Z,1015.57
2018-05-04T00:19:22.438Z,1015.58
2018-05-04T00:19:57.764Z,1015.60
2018-05-04T00:20:33.283Z,1015.59
2018-05-04T00:21:08.719Z,1015.62
2018-05-04T00:21:44.070Z,1015.55
2018-05-04T00:22:19.533Z,1015.55
2018-05-04T00:22:54.912Z,1015.57
2018-05-04T00:23:30.352Z,1015.54
2018-05-04T00:24:05.831Z,1015.57
2018-05-04T00:24:42.219Z,1015.54
2018-05-04T00:25:17.767Z,1015.53
2018-05-04T00:25:54.623Z,1015.55
2018-05-04T00:26:30.057Z,1015.55
2018-05-04T00:27:06.675Z,1015.50
2018-05-04T00:27:43.249Z,1015.52
2018-05-04T00:28:18.762Z,1015.54
2018-05-04T00:28:54.110Z,1015.51
2018-05-04T00:29:29.343Z,1015.54
2018-05-04T00:30:04.799Z,1015.53
2018-05-04T00:30:41.716Z,1015.55
2018-05-04T00:31:17.283Z,1015.54
2018-05-04T00:31:52.500Z,1015.53
2018-05-04T00:32:28.031Z,1015.50
2018-05-04T00:33:03.801Z,1015.54
2018-05-04T00:33:39.051Z,1015.49
2018-05-04T00:34:14.365Z,1015.50
2018-05-04T00:34:50.024Z,1015.48
2018-05-04T00:35:25.419Z,1015.50
2018-05-04T00:36:00.681Z,1015.49
2018-05-04T00:36:36.306Z,1015.50
2018-05-04T00:37:11.714Z,1015.50
2018-05-04T00:37:46.855Z,1015.49
2018-05-04T00:38:22.081Z,1015.56
2018-05-04T00:38:57.868Z,1015.51
2018-05-04T00:39:33.115Z,1015.53
2018-05-04T00:40:08.681Z,1015.54
2018-05-04T00:40:47.002Z,1015.55
2018-05-04T00:41:22.961Z,1015.56
2018-05-04T00:41:58.505Z,1015.52
2018-05-04T00:42:34.262Z,1015.53
2018-05-04T00:43:09.925Z,1015.52
2018-05-04T00:43:45.262Z,1015.53
2018-05-04T00:44:20.580Z,1015.52
2018-05-04T00:44:56.241Z,1015.57
2018-05-04T00:45:31.683Z,1015.51
2018-05-04T00:46:06.845Z,1015.50
2018-05-04T00:46:43.370Z,1015.49
2018-05-04T00:47:18.498Z,1015.49
2018-05-04T00:47:53.909Z,1015.49
2018-05-04T00:48:29.197Z,1015.50
2018-05-04T00:49:04.607Z,1015.50
2018-05-04T00:49:40.359Z,1015.49
2018-05-04T00:50:15.916Z,1015.47
2018-05-04T00:50:56.660Z,1015.50
2018-05-04T00:51:32.003Z,1015.46
2018-05-04T00:52:09.534Z,1015.49
2018-05-04T00:52:49.105Z,1015.48
2018-05-04T00:53:24.353Z,1015.48
2018-05-04T00:53:59.844Z,1015.53
2018-05-04T00:54:35.146Z,1015.54
2018-05-04T00:55:10.486Z,1015.52
2018-05-04T00:55:45.699Z,1015.54
2018-05-04T00:56:21.207Z,1015.56
2018-05-04T00:56:57.722Z,1015.55
2018-05-04T00:57:33.289Z,1015.56
2018-05-04T00:58:08.611Z,1015.60
2018-05-04T00:58:43.927Z,1015.56
2018-05-04T00:59:19.274Z,1015.57
2018-05-04T00:59:54.528Z,1015.60
2018-05-04T01:00:29.942Z,1015.60
2018-05-04T01:01:05.411Z,1015.64
2018-05-04T01:01:40.738Z,1015.65
2018-05-04T01:02:16.574Z,1015.67
2018-05-04T01:02:52.178Z,1015.70
2018-05-04T01:03:27.707Z,1015.71
2018-05-04T01:04:03.188Z,1015.75
2018-05-04T01:04:39.968Z,1015.71
2018-05-04T01:05:15.479Z,1015.70
2018-05-04T01:05:50.908Z,1015.76
2018-05-04T01:06:26.416Z,1015.73
2018-05-04T01:07:01.850Z,1015.71
2018-05-04T01:07:37.363Z,1015.72
2018-05-04T01:08:12.972Z,1015.74
2018-05-04T01:08:48.167Z,1015.75
2018-05-04T01:09:24.494Z,1015.73
2018-05-04T01:10:03.141Z,1015.78
2018-05-04T01:10:38.821Z,1015.81
2018-05-04T01:11:17.250Z,1015.77
2018-05-04T01:11:52.607Z,1015.76
2018-05-04T01:14:29.041Z,1015.81
2018-05-04T01:15:06.775Z,1015.80
2018-05-04T01:15:46.288Z,1015.83
2018-05-04T01:16:23.166Z,1015.78
2018-05-04T01:16:58.784Z,1015.84
2018-05-04T01:17:34.189Z,1015.81
2018-05-04T01:18:09.833Z,1015.78
2018-05-04T01:18:45.109Z,1015.80
2018-05-04T01:19:20.350Z,1015.80
2018-05-04T01:19:56.045Z,1015.80
2018-05-04T01:20:31.510Z,1015.80
2018-05-04T01:21:06.905Z,1015.81
2018-05-04T01:21:42.020Z,1015.78
2018-05-04T01:22:17.407Z,1015.80
2018-05-04T01:22:59.227Z,1015.79
2018-05-04T01:23:34.764Z,1015.82
2018-05-04T01:24:10.228Z,1015.82
2018-05-04T01:24:45.689Z,1015.83
2018-05-04T01:25:22.737Z,1015.83
2018-05-04T01:25:57.987Z,1015.87
2018-05-04T01:26:33.118Z,1015.84
2018-05-04T01:27:08.429Z,1015.85
2018-05-04T01:27:43.974Z,1015.87
2018-05-04T01:28:19.535Z,1015.89
2018-05-04T01:28:54.967Z,1015.90
2018-05-04T01:29:30.297Z,1015.87
2018-05-04T01:30:05.427Z,1015.87
2018-05-04T01:30:41.954Z,1015.87
2018-05-04T01:31:17.439Z,1015.86
2018-05-04T01:31:52.859Z,1015.85
2018-05-04T01:32:28.610Z,1015.84
2018-05-04T01:33:03.734Z,1015.89
2018-05-04T01:33:39.459Z,1015.88
2018-05-04T01:34:14.885Z,1015.90
2018-05-04T01:34:50.142Z,1015.89
2018-05-04T01:35:25.467Z,1015.91
2018-05-04T01:36:00.918Z,1015.92
2018-05-04T01:36:36.577Z,1015.94
2018-05-04T01:37:12.218Z,1015.91
2018-05-04T01:37:47.555Z,1015.97
2018-05-04T01:38:22.906Z,1015.97
2018-05-04T01:38:58.200Z,1016.02
2018-05-04T01:39:33.559Z,1015.98
2018-05-04T01:40:08.868Z,1016.02
2018-05-04T01:40:46.299Z,1016.05
2018-05-04T01:41:21.940Z,1016.05
2018-05-04T01:41:57.524Z,1016.02
2018-05-04T01:42:32.838Z,1016.07
2018-05-04T01:43:08.189Z,1016.06
2018-05-04T01:43:43.410Z,1016.05
2018-05-04T01:44:18.885Z,1016.05
2018-05-04T01:44:54.437Z,1016.03
2018-05-04T01:45:30.156Z,1016.07
2018-05-04T01:46:05.868Z,1016.07
2018-05-04T01:46:41.363Z,1016.08
2018-05-04T01:47:16.699Z,1016.10
2018-05-04T01:47:52.050Z,1016.07
2018-05-04T01:48:28.595Z,1016.11
2018-05-04T01:49:04.069Z,1016.14
2018-05-04T01:49:39.298Z,1016.13
2018-05-04T01:50:14.503Z,1016.15
2018-05-04T01:50:49.745Z,1016.19
2018-05-04T01:51:24.948Z,1016.16
2018-05-04T01:52:00.901Z,1016.21
2018-05-04T01:52:36.517Z,1016.20
2018-05-04T01:53:11.736Z,1016.17
2018-05-04T01:53:47.302Z,1016.21
2018-05-04T01:54:22.855Z,1016.22
2018-05-04T01:54:58.352Z,1016.21
2018-05-04T01:55:33.803Z,1016.21
2018-05-04T01:56:09.720Z,1016.20
2018-05-04T01:56:45.928Z,1016.19
2018-05-04T01:57:21.295Z,1016.16
2018-05-04T01:57:56.625Z,1016.18
2018-05-04T01:58:31.947Z,1016.16
2018-05-04T01:59:07.352Z,1016.14
2018-05-04T01:59:42.651Z,1016.13
2018-05-04T02:00:18.029Z,1016.11
2018-05-04T02:00:53.647Z,1016.14
2018-05-04T02:01:29.027Z,1016.12
2018-05-04T02:02:04.241Z,1016.16
2018-05-04T02:02:39.933Z,1016.16
2018-05-04T02:03:15.745Z,1016.20
2018-05-04T02:03:51.383Z,1016.18
2018-05-04T02:04:26.819Z,1016.19
2018-05-04T02:05:02.248Z,1016.20
2018-05-04T02:05:37.816Z,1016.19
2018-05-04T02:06:13.267Z,1016.20
2018-05-04T02:06:48.753Z,1016.24
2018-05-04T02:07:24.105Z,1016.21
2018-05-04T02:07:59.744Z,1016.24
2018-05-04T02:08:35.270Z,1016.22
2018-05-04T02:09:10.682Z,1016.21
2018-05-04T02:09:46.106Z,1016.23
2018-05-04T02:10:21.731Z,1016.22
2018-05-04T02:10:57.189Z,1016.22
2018-05-04T02:11:32.610Z,1016.22
2018-05-04T02:12:08.144Z,1016.18
2018-05-04T02:12:43.499Z,1016.18
2018-05-04T02:13:18.747Z,1016.21
2018-05-04T02:13:54.205Z,1016.18
2018-05-04T02:14:29.842Z,1016.14
2018-05-04T02:15:05.347Z,1016.17
2018-05-04T02:15:42.499Z,1016.16
2018-05-04T02:16:18.022Z,1016.15
2018-05-04T02:16:53.251Z,1016.18
2018-05-04T02:17:28.371Z,1016.15
2018-05-04T02:18:03.685Z,1016.15
2018-05-04T02:18:39.002Z,1016.15
2018-05-04T02:19:14.257Z,1016.15
2018-05-04T02:19:49.711Z,1016.14
2018-05-04T02:20:25.129Z,1016.12
2018-05-04T02:21:00.434Z,1016.14
2018-05-04T02:21:35.773Z,1016.12
2018-05-04T02:22:11.211Z,1016.13
2018-05-04T02:22:46.739Z,1016.14
2018-05-04T02:23:22.182Z,1016.16
2018-05-04T02:23:57.519Z,1016.13
2018-05-04T02:24:32.920Z,1016.19
2018-05-04T02:25:08.463Z,1016.17
2018-05-04T02:25:45.589Z,1016.19
2018-05-04T02:26:20.848Z,1016.20
2018-05-04T02:26:56.249Z,1016.23
2018-05-04T02:27:32.217Z,1016.21
2018-05-04T02:28:07.729Z,1016.21
2018-05-04T02:28:43.103Z,1016.21
2018-05-04T02:29:18.812Z,1016.21
2018-05-04T02:29:53.951Z,1016.20
2018-05-04T02:30:29.366Z,1016.24
2018-05-04T02:31:06.504Z,1016.24
2018-05-04T02:31:41.934Z,1016.20
2018-05-04T02:32:17.180Z,1016.20
2018-05-04T02:32:52.305Z,1016.19
2018-05-04T02:33:27.789Z,1016.15
2018-05-04T02:34:03.257Z,1016.20
2018-05-04T02:34:38.456Z,1016.16
2018-05-04T02:35:13.670Z,1016.16
2018-05-04T02:35:53.121Z,1016.18
2018-05-04T02:36:28.462Z,1016.13
2018-05-04T02:37:03.609Z,1016.13
2018-05-04T02:37:39.323Z,1016.12
2018-05-04T02:38:14.661Z,1016.15
2018-05-04T02:38:50.271Z,1016.18
2018-05-04T02:39:25.592Z,1016.12
2018-05-04T02:40:00.779Z,1016.16
2018-05-04T02:40:36.224Z,1016.15
2018-05-04T02:41:11.636Z,1016.16
2018-05-04T02:41:47.081Z,1016.19
2018-05-04T02:42:22.417Z,1016.17
2018-05-04T02:42:57.643Z,1016.17
2018-05-04T02:43:33.004Z,1016.15
2018-05-04T02:44:08.041Z,1016.17
2018-05-04T02:44:43.316Z,1016.18
2018-05-04T02:45:18.733Z,1016.17
2018-05-04T02:45:54.066Z,1016.19
2018-05-04T02:46:29.782Z,1016.19
2018-05-04T02:47:05.231Z,1016.18
2018-05-04T02:47:40.362Z,1016.21
2018-05-04T02:48:15.943Z,1016.20
2018-05-04T02:48:51.383Z,1016.21
2018-05-04T02:49:27.017Z,1016.18
2018-05-04T02:50:02.467Z,1016.18
2018-05-04T02:50:38.187Z,1016.14
2018-05-04T02:51:13.796Z,1016.12
2018-05-04T02:51:49.163Z,1016.14
2018-05-04T02:52:24.576Z,1016.15
2018-05-04T02:52:59.928Z,1016.14
2018-05-04T02:53:35.453Z,1016.13
2018-05-04T02:54:10.679Z,1016.13
2018-05-04T02:54:46.131Z,1016.13
2018-05-04T02:55:21.418Z,1016.10
2018-05-04T02:55:56.742Z,1016.09
2018-05-04T02:56:31.999Z,1016.09
2018-05-04T02:57:09.206Z,1016.07
2018-05-04T02:57:44.373Z,1016.07
2018-05-04T02:58:19.506Z,1016.04
2018-05-04T02:58:54.850Z,1016.05
2018-05-04T02:59:30.170Z,1016.03
2018-05-04T03:00:05.698Z,1016.02
2018-05-04T03:00:41.136Z,1016.03
2018-05-04T03:01:17.122Z,1016.00
2018-05-04T03:01:52.334Z,1016.01
2018-05-04T03:02:28.485Z,1015.94
2018-05-04T03:03:03.814Z,1015.98
2018-05-04T03:03:39.261Z,1015.97
2018-05-04T03:04:14.448Z,1015.95
2018-05-04T03:04:50.564Z,1015.95
2018-05-04T03:05:25.873Z,1015.94
2018-05-04T03:06:01.590Z,1015.95
2018-05-04T03:06:37.257Z,1015.95
2018-05-04T03:07:12.901Z,1015.94
2018-05-04T03:07:48.605Z,1015.94
2018-05-04T03:08:23.930Z,1015.94
2018-05-04T03:08:59.422Z,1015.95
2018-05-04T03:09:35.076Z,1015.92
2018-05-04T03:10:10.411Z,1015.93
2018-05-04T03:10:47.282Z,1015.90
2018-05-04T03:11:22.700Z,1015.90
2018-05-04T03:11:58.058Z,1015.87
2018-05-04T03:12:33.376Z,1015.88
2018-05-04T03:13:08.418Z,1015.87
2018-05-04T03:13:43.618Z,1015.87
2018-05-04T03:14:18.972Z,1015.82
2018-05-04T03:14:54.312Z,1015.86
2018-05-04T03:15:29.436Z,1015.84
2018-05-04T03:16:05.077Z,1015.85
2018-05-04T03:16:40.569Z,1015.80
2018-05-04T03:17:15.876Z,1015.82
2018-05-04T03:17:51.348Z,1015.78
2018-05-04T03:18:26.688Z,1015.82
2018-05-04T03:19:02.118Z,1015.79
2018-05-04T03:19:37.560Z,1015.81
2018-05-04T03:20:13.013Z,1015.79
2018-05-04T03:20:48.637Z,1015.75
2018-05-04T03:21:24.087Z,1015.78
2018-05-04T03:21:59.471Z,1015.78
2018-05-04T03:22:34.739Z,1015.78
2018-05-04T03:23:10.447Z,1015.77
2018-05-04T03:23:45.979Z,1015.78
2018-05-04T03:24:21.305Z,1015.74
2018-05-04T03:24:56.725Z,1015.76
2018-05-04T03:25:32.123Z,1015.75
2018-05-04T03:26:07.593Z,1015.72
2018-05-04T03:26:43.251Z,1015.73
2018-05-04T03:27:18.885Z,1015.73
2018-05-04T03:27:54.122Z,1015.74
2018-05-04T03:28:29.558Z,1015.73
2018-05-04T03:29:05.303Z,1015.72
2018-05-04T03:29:40.639Z,1015.69
2018-05-04T03:30:16.480Z,1015.70
2018-05-04T03:30:53.005Z,1015.68
2018-05-04T03:31:28.719Z,1015.72
2018-05-04T03:32:04.063Z,1015.71
2018-05-04T03:32:39.637Z,1015.69
2018-05-04T03:33:15.112Z,1015.67
2018-05-04T03:33:50.618Z,1015.71
2018-05-04T03:34:26.143Z,1015.71
2018-05-04T03:35:01.717Z,1015.68
2018-05-04T03:35:37.216Z,1015.68
2018-05-04T03:36:12.644Z,1015.74
2018-05-04T03:36:51.281Z,1015.72
2018-05-04T03:37:26.949Z,1015.73
2018-05-04T03:38:02.834Z,1015.74
2018-05-04T03:38:38.175Z,1015.73
2018-05-04T03:39:13.698Z,1015.73
2018-05-04T03:39:49.448Z,1015.71
2018-05-04T03:40:24.857Z,1015.69
2018-05-04T03:41:00.109Z,1015.71
2018-05-04T03:41:37.841Z,1015.71
2018-05-04T03:42:13.885Z,1015.71
2018-05-04T03:42:49.544Z,1015.71
2018-05-04T03:43:25.161Z,1015.72
2018-05-04T03:44:00.476Z,1015.73
2018-05-04T03:44:35.731Z,1015.71
2018-05-04T03:45:11.140Z,1015.71
2018-05-04T03:45:46.359Z,1015.73
2018-05-04T03:46:21.694Z,1015.71
2018-05-04T03:46:57.430Z,1015.69
2018-05-04T03:47:32.934Z,1015.77
2018-05-04T03:48:08.188Z,1015.71
2018-05-04T03:48:44.439Z,1015.76
2018-05-04T03:49:19.976Z,1015.77
2018-05-04T03:49:55.587Z,1015.77
2018-05-04T03:50:30.936Z,1015.76
2018-05-04T03:51:06.179Z,1015.79
2018-05-04T03:51:41.739Z,1015.80
2018-05-04T03:52:17.045Z,1015.80
2018-05-04T03:52:52.282Z,1015.82
2018-05-04T03:53:27.889Z,1015.82
2018-05-04T03:54:03.192Z,1015.82
2018-05-04T03:54:38.617Z,1015.81
2018-05-04T03:55:14.040Z,1015.81
2018-05-04T03:57:50.394Z,1015.81
2018-05-04T03:58:26.032Z,1015.81
2018-05-04T03:59:00.969Z,1015.77
2018-05-04T03:59:36.447Z,1015.81
2018-05-04T04:00:11.553Z,1015.83
2018-05-04T04:00:48.538Z,1015.82
2018-05-04T04:01:24.246Z,1015.83
2018-05-04T04:01:59.559Z,1015.85
2018-05-04T04:02:35.292Z,1015.84
2018-05-04T04:03:10.857Z,1015.84
2018-05-04T04:03:46.176Z,1015.85
2018-05-04T04:04:21.394Z,1015.87
2018-05-04T04:04:57.344Z,1015.85
2018-05-04T04:05:32.768Z,1015.87
2018-05-04T04:06:08.207Z,1015.87
2018-05-04T04:06:44.206Z,1015.86
2018-05-04T04:07:19.574Z,1015.83
2018-05-04T04:07:55.168Z,1015.85
2018-05-04T04:08:30.453Z,1015.87
2018-05-04T04:09:05.704Z,1015.84
2018-05-04T04:09:41.131Z,1015.86
2018-05-04T04:10:16.516Z,1015.83
2018-05-04T04:10:55.263Z,1015.78
2018-05-04T04:11:30.583Z,1015.79
2018-05-04T04:12:06.123Z,1015.81
2018-05-04T04:12:41.356Z,1015.80
2018-05-04T04:13:16.739Z,1015.82
2018-05-04T04:13:52.040Z,1015.82
2018-05-04T04:14:27.199Z,1015.87
2018-05-04T04:15:02.736Z,1015.86
2018-05-04T04:15:38.510Z,1015.86
2018-05-04T04:16:13.760Z,1015.88
2018-05-04T04:16:49.057Z,1015.90
2018-05-04T04:17:24.556Z,1015.92
2018-05-04T04:18:00.034Z,1015.91
2018-05-04T04:18:35.328Z,1015.91
2018-05-04T04:19:10.963Z,1015.98
2018-05-04T04:19:46.715Z,1015.95
2018-05-04T04:20:22.250Z,1015.96
2018-05-04T04:20:57.918Z,1015.98
2018-05-04T04:21:33.263Z,1015.99
2018-05-04T04:22:08.577Z,1015.99
2018-05-04T04:22:43.796Z,1016.00
2018-05-04T04:23:19.189Z,1016.02
2018-05-04T04:23:54.471Z,1016.03
2018-05-04T04:24:29.684Z,1016.04
2018-05-04T04:25:05.001Z,1016.08
2018-05-04T04:25:40.238Z,1016.07
2018-05-04T04:26:16.097Z,1016.08
2018-05-04T04:26:51.618Z,1016.09
2018-05-04T04:27:27.027Z,1016.10
2018-05-04T04:28:02.326Z,1016.12
2018-05-04T04:28:38.154Z,1016.11
2018-05-04T04:29:13.437Z,1016.14
2018-05-04T04:29:48.771Z,1016.17
2018-05-04T04:30:24.477Z,1016.14
2018-05-04T04:30:59.988Z,1016.16
2018-05-04T04:31:35.427Z,1016.16
2018-05-04T04:32:10.979Z,1016.15
2018-05-04T04:32:46.512Z,1016.15
2018-05-04T04:33:22.009Z,1016.17
2018-05-04T04:33:57.312Z,1016.19
2018-05-04T04:34:33.011Z,1016.19
2018-05-04T04:35:08.273Z,1016.18
2018-05-04T04:35:45.094Z,1016.19
2018-05-04T04:36:20.975Z,1016.24
2018-05-04T04:36:56.448Z,1016.21
2018-05-04T04:37:31.896Z,1016.22
2018-05-04T04:38:07.226Z,1016.22
2018-05-04T04:38:42.515Z,1016.21
2018-05-04T04:39:18.032Z,1016.21
2018-05-04T04:39:53.330Z,1016.24
2018-05-04T04:40:28.766Z,1016.24
2018-05-04T04:41:04.268Z,1016.24
2018-05-04T04:41:39.467Z,1016.25
2018-05-04T04:42:14.688Z,1016.28
2018-05-04T04:42:50.077Z,1016.30
2018-05-04T04:43:25.385Z,1016.33
2018-05-04T04:44:00.826Z,1016.33
2018-05-04T04:44:36.354Z,1016.33
2018-05-04T04:45:11.639Z,1016.36
2018-05-04T04:45:51.065Z,1016.37
2018-05-04T04:46:27.137Z,1016.32
2018-05-04T04:47:02.415Z,1016.37
2018-05-04T04:47:37.741Z,1016.38
2018-05-04T04:48:13.056Z,1016.36
2018-05-04T04:48:48.647Z,1016.37
2018-05-04T04:49:24.252Z,1016.35
2018-05-04T04:49:59.584Z,1016.35
2018-05-04T04:50:34.649Z,1016.41
2018-05-04T04:51:09.897Z,1016.38
2018-05-04T04:51:45.234Z,1016.38
2018-05-04T04:52:20.591Z,1016.38
2018-05-04T04:52:55.929Z,1016.44
2018-05-04T04:53:31.562Z,1016.41
2018-05-04T04:54:06.963Z,1016.43
2018-05-04T04:54:42.382Z,1016.41
2018-05-04T04:55:17.654Z,1016.42
2018-05-04T04:55:52.963Z,1016.37
2018-05-04T04:56:28.510Z,1016.41
2018-05-04T04:57:03.795Z,1016.44
2018-05-04T04:57:39.081Z,1016.45
2018-05-04T04:58:14.411Z,1016.46
2018-05-04T04:58:50.002Z,1016.48
2018-05-04T04:59:25.708Z,1016.46
2018-05-04T05:00:01.207Z,1016.49
2018-05-04T05:00:39.499Z,1016.50
2018-05-04T05:01:14.889Z,1016.49
2018-05-04T05:01:50.353Z,1016.50
2018-05-04T05:02:25.580Z,1016.48
2018-05-04T05:03:00.934Z,1016.54
2018-05-04T05:03:36.153Z,1016.54
2018-05-04T05:04:11.471Z,1016.54
2018-05-04T05:04:47.095Z,1016.54
2018-05-04T05:05:22.530Z,1016.55
2018-05-04T05:05:59.621Z,1016.54
2018-05-04T05:06:35.048Z,1016.57
2018-05-04T05:07:11.961Z,1016.59
2018-05-04T05:07:47.419Z,1016.63
2018-05-04T05:08:22.729Z,1016.62
2018-05-04T05:08:58.351Z,1016.62
2018-05-04T05:09:33.590Z,1016.62
2018-05-04T05:10:08.949Z,1016.63
2018-05-04T05:10:44.552Z,1016.63
2018-05-04T05:11:19.963Z,1016.63
2018-05-04T05:11:55.359Z,1016.66
2018-05-04T05:12:30.736Z,1016.69
2018-05-04T05:13:05.953Z,1016.67
2018-05-04T05:13:41.678Z,1016.73
2018-05-04T05:14:16.795Z,1016.76
2018-05-04T05:14:51.972Z,1016.74
2018-05-04T05:15:27.388Z,1016.76
2018-05-04T05:16:02.720Z,1016.81
2018-05-04T05:16:38.059Z,1016.79
2018-05-04T05:17:13.439Z,1016.80
2018-05-04T05:17:48.860Z,1016.80
2018-05-04T05:18:25.646Z,1016.82
2018-05-04T05:19:00.864Z,1016.81
2018-05-04T05:19:36.701Z,1016.82
2018-05-04T05:20:11.992Z,1016.79
2018-05-04T05:20:47.414Z,1016.80
2018-05-04T05:21:22.891Z,1016.83
2018-05-04T05:21:58.558Z,1016.83
2018-05-04T05:22:33.912Z,1016.82
2018-05-04T05:23:09.432Z,1016.85
2018-05-04T05:23:44.707Z,1016.85
2018-05-04T05:24:19.961Z,1016.83
2018-05-04T05:24:55.260Z,1016.82
2018-05-04T05:25:30.703Z,1016.80
2018-05-04T05:26:06.052Z,1016.80
2018-05-04T05:26:41.674Z,1016.78
2018-05-04T05:27:17.395Z,1016.79
2018-05-04T05:27:52.686Z,1016.78
2018-05-04T05:28:28.299Z,1016.77
2018-05-04T05:29:03.538Z,1016.76
2018-05-04T05:29:38.628Z,1016.78
2018-05-04T05:30:13.791Z,1016.76
2018-05-04T05:30:49.349Z,1016.78
2018-05-04T05:31:24.773Z,1016.79
2018-05-04T05:32:00.499Z,1016.81
2018-05-04T05:32:35.732Z,1016.82
2018-05-04T05:33:11.228Z,1016.83
2018-05-04T05:33:46.543Z,1016.88
2018-05-04T05:34:22.243Z,1016.85
2018-05-04T05:34:57.588Z,1016.92
2018-05-04T05:35:33.171Z,1016.90
2018-05-04T05:36:08.443Z,1016.93
2018-05-04T05:36:43.743Z,1016.91
2018-05-04T05:37:19.069Z,1016.94
2018-05-04T05:37:54.366Z,1016.94
2018-05-04T05:38:29.692Z,1016.94
2018-05-04T05:39:05.216Z,1016.93
2018-05-04T05:39:40.406Z,1016.97
2018-05-04T05:40:15.854Z,1016.94
2018-05-04T05:40:51.350Z,1016.97
2018-05-04T05:41:27.954Z,1016.95
2018-05-04T05:42:04.139Z,1016.95
2018-05-04T05:42:40.047Z,1016.97
2018-05-04T05:43:15.651Z,1016.97
2018-05-04T05:43:51.059Z,1016.94
2018-05-04T05:44:26.591Z,1016.97
2018-05-04T05:45:03.287Z,1016.91
2018-05-04T05:45:38.943Z,1016.94
2018-05-04T05:46:14.402Z,1016.94
2018-05-04T05:46:50.419Z,1016.95
2018-05-04T05:47:25.740Z,1016.97
2018-05-04T05:48:01.102Z,1017.03
2018-05-04T05:48:36.605Z,1017.01
2018-05-04T05:49:11.711Z,1017.06
2018-05-04T05:49:46.839Z,1017.06
2018-05-04T05:50:22.031Z,1017.08
2018-05-04T05:50:57.385Z,1017.09
2018-05-04T05:51:32.786Z,1017.09
2018-05-04T05:52:08.004Z,1017.09
2018-05-04T05:52:45.092Z,1017.09
2018-05-04T05:53:20.503Z,1017.08
2018-05-04T05:53:55.800Z,1017.07
2018-05-04T05:54:31.355Z,1017.04
2018-05-04T05:55:06.659Z,1017.07
2018-05-04T05:55:43.170Z,1017.10
2018-05-04T05:56:18.606Z,1017.08
2018-05-04T05:56:54.198Z,1017.05
2018-05-04T05:57:29.922Z,1017.05
2018-05-04T05:58:05.301Z,1017.06
2018-05-04T05:58:41.265Z,1017.08
2018-05-04T05:59:16.577Z,1017.07
2018-05-04T05:59:52.103Z,1017.05
2018-05-04T06:00:27.679Z,1017.08
2018-05-04T06:01:02.700Z,1017.06
2018-05-04T06:01:39.477Z,1017.05
2018-05-04T06:02:14.818Z,1017.03
2018-05-04T06:02:49.948Z,1017.06
2018-05-04T06:03:25.480Z,1017.08
2018-05-04T06:04:01.312Z,1017.09
2018-05-04T06:04:36.343Z,1017.14
2018-05-04T06:05:12.069Z,1017.09
2018-05-04T06:05:47.679Z,1017.15
2018-05-04T06:06:23.298Z,1017.12
2018-05-04T06:07:01.395Z,1017.13
2018-05-04T06:07:38.239Z,1017.07
2018-05-04T06:08:13.659Z,1017.07
2018-05-04T06:08:48.759Z,1017.06
2018-05-04T06:09:24.060Z,1017.07
2018-05-04T06:09:59.379Z,1017.04
2018-05-04T06:10:34.715Z,1017.02
2018-05-04T06:11:10.111Z,1017.03
2018-05-04T06:11:45.528Z,1017.04
2018-05-04T06:12:23.905Z,1017.05
2018-05-04T06:13:02.300Z,1017.04
2018-05-04T06:13:40.420Z,1017.07
2018-05-04T06:14:15.825Z,1017.05
2018-05-04T06:14:51.145Z,1017.13
2018-05-04T06:15:27.645Z,1017.12
2018-05-04T06:16:03.282Z,1017.14
2018-05-04T06:16:38.766Z,1017.15
2018-05-04T06:17:14.333Z,1017.12
2018-05-04T06:17:49.636Z,1017.16
2018-05-04T06:18:24.970Z,1017.15
2018-05-04T06:19:00.300Z,1017.15
2018-05-04T06:19:36.015Z,1017.20
2018-05-04T06:20:11.360Z,1017.18
2018-05-04T06:20:46.998Z,1017.15
2018-05-04T06:21:22.396Z,1017.18
2018-05-04T06:21:57.712Z,1017.19
2018-05-04T06:22:33.157Z,1017.21
2018-05-04T06:23:08.480Z,1017.20
2018-05-04T06:23:44.697Z,1017.18
2018-05-04T06:24:19.843Z,1017.19
2018-05-04T06:24:55.225Z,1017.21
2018-05-04T06:25:30.538Z,1017.15
2018-05-04T06:26:08.832Z,1017.15
2018-05-04T06:26:44.230Z,1017.17
2018-05-04T06:27:19.661Z,1017.19
2018-05-04T06:27:55.230Z,1017.18
2018-05-04T06:28:36.848Z,1017.17
2018-05-04T06:29:12.780Z,1017.17
2018-05-04T06:29:51.558Z,1017.19
2018-05-04T06:30:27.116Z,1017.21
2018-05-04T06:31:05.656Z,1017.18
2018-05-04T06:31:40.873Z,1017.17
2018-05-04T06:32:16.209Z,1017.12
2018-05-04T06:32:51.832Z,1017.17
2018-05-04T06:33:32.951Z,1017.12
2018-05-04T06:34:08.259Z,1017.11
2018-05-04T06:34:46.804Z,1017.13
2018-05-04T06:35:25.207Z,1017.13
2018-05-04T06:36:00.850Z,1017.13
2018-05-04T06:36:38.419Z,1017.15
2018-05-04T06:37:13.707Z,1017.17
2018-05-04T06:37:49.244Z,1017.17
2018-05-04T06:38:24.655Z,1017.16
2018-05-04T06:39:00.324Z,1017.14
2018-05-04T06:39:35.762Z,1017.17
2018-05-04T06:40:11.379Z,1017.12
2018-05-04T06:40:47.111Z,1017.16
2018-05-04T06:41:22.357Z,1017.14
2018-05-04T06:41:57.853Z,1017.15
2018-05-04T06:42:33.320Z,1017.17
2018-05-04T06:43:08.622Z,1017.16
2018-05-04T06:43:45.238Z,1017.21
2018-05-04T06:44:20.811Z,1017.22
2018-05-04T06:44:56.620Z,1017.19
2018-05-04T06:45:33.769Z,1017.21
2018-05-04T06:46:09.167Z,1017.16
2018-05-04T06:46:45.608Z,1017.18
2018-05-04T06:47:21.000Z,1017.21
2018-05-04T06:47:56.776Z,1017.25
2018-05-04T06:48:32.083Z,1017.21
2018-05-04T06:49:07.722Z,1017.15
2018-05-04T06:49:43.374Z,1017.12
2018-05-04T06:50:18.706Z,1017.14
2018-05-04T06:50:54.952Z,1017.11
2018-05-04T06:51:30.583Z,1017.12
2018-05-04T06:52:06.096Z,1017.14
2018-05-04T06:52:41.620Z,1017.14
2018-05-04T06:53:17.004Z,1017.14
2018-05-04T06:53:52.376Z,1017.17
2018-05-04T06:54:27.617Z,1017.16
2018-05-04T06:55:03.458Z,1017.21
2018-05-04T06:55:38.861Z,1017.23
2018-05-04T06:56:14.215Z,1017.20
2018-05-04T06:56:49.810Z,1017.18
2018-05-04T06:57:25.156Z,1017.22
2018-05-04T06:58:00.477Z,1017.22
2018-05-04T06:58:37.994Z,1017.26
2018-05-04T06:59:13.318Z,1017.25
2018-05-04T06:59:49.467Z,1017.31
2018-05-04T07:00:25.179Z,1017.27
2018-05-04T07:01:00.659Z,1017.30
2018-05-04T07:01:36.058Z,1017.27
2018-05-04T07:02:11.591Z,1017.29
2018-05-04T07:02:49.580Z,1017.30
2018-05-04T07:03:25.718Z,1017.32
2018-05-04T07:04:01.227Z,1017.28
2018-05-04T07:04:40.012Z,1017.32
2018-05-04T07:05:15.161Z,1017.29
2018-05-04T07:05:53.887Z,1017.31
2018-05-04T07:06:29.506Z,1017.31
2018-05-04T07:07:05.639Z,1017.32
2018-05-04T07:07:41.142Z,1017.33
2018-05-04T07:08:19.920Z,1017.35
2018-05-04T07:08:55.198Z,1017.35
2018-05-04T07:09:30.272Z,1017.37
2018-05-04T07:10:05.635Z,1017.36
2018-05-04T07:10:42.586Z,1017.39
2018-05-04T07:11:17.920Z,1017.36
2018-05-04T07:11:54.331Z,1017.31
2018-05-04T07:12:33.059Z,1017.38
2018-05-04T07:13:08.277Z,1017.39
2018-05-04T07:13:46.922Z,1017.42
2018-05-04T07:14:22.532Z,1017.43
2018-05-04T07:15:00.583Z,1017.46
2018-05-04T07:15:34.025Z,1017.45